Time;durP1;ratioP1;P1;durP2;ratioP2;P2;SDS_P1;SDS_P2;PMS_P1;PMS_P2;Temp;Humidity;BMP_temperature;BMP_pressure;BME280_temperature;BME280_humidity;BME280_pressure;Samples;Min_cycle;Max_cycle;Signal;HPM_P1;HPM_P2
2023/08/11 00:00:50;;;;;;;9.40;3.20;;;;;;;15.69;60.60;101273.86;111109;1203;98951;-61
2023/08/11 00:03:16;;;;;;;7.40;3.10;;;;;;;15.63;60.64;101280.44;111284;1205;139049;-61
2023/08/11 00:05:41;;;;;;;12.80;4.20;;;;;;;15.62;60.85;101280.73;111220;1208;99475;-62
2023/08/11 00:08:08;;;;;;;14.00;3.80;;;;;;;15.61;61.13;101279.30;111177;1208;99048;-61
2023/08/11 00:10:34;;;;;;;7.60;3.00;;;;;;;15.61;61.11;101280.42;111054;1209;138747;-61
2023/08/11 00:13:00;;;;;;;11.40;2.60;;;;;;;15.60;61.31;101275.98;111302;1208;98998;-63
2023/08/11 00:15:28;;;;;;;15.20;3.20;;;;;;;15.58;61.37;101275.35;111040;1206;139630;-61
2023/08/11 00:17:58;;;;;;;9.70;3.30;;;;;;;15.56;61.41;101272.38;111080;1204;99032;-61
2023/08/11 00:20:23;;;;;;;9.10;3.30;;;;;;;15.54;61.53;101271.05;111170;1208;100251;-61
2023/08/11 00:22:49;;;;;;;6.90;2.80;;;;;;;15.52;61.71;101269.55;110986;1215;140259;-61
2023/08/11 00:25:14;;;;;;;6.80;2.50;;;;;;;15.49;61.71;101268.09;111210;1208;99204;-61
2023/08/11 00:27:40;;;;;;;9.80;3.20;;;;;;;15.45;61.88;101270.07;110915;1213;138755;-61
2023/08/11 00:30:06;;;;;;;6.90;2.70;;;;;;;15.43;61.94;101266.25;111098;1208;98952;-61
2023/08/11 00:32:31;;;;;;;9.70;3.00;;;;;;;15.42;62.04;101266.86;111146;1208;100781;-62
2023/08/11 00:34:57;;;;;;;10.00;2.90;;;;;;;15.42;62.24;101269.39;110943;1208;141095;-61
2023/08/11 00:37:22;;;;;;;11.60;3.00;;;;;;;15.41;62.27;101267.24;111191;1209;98923;-61
2023/08/11 00:39:48;;;;;;;6.10;2.90;;;;;;;15.39;62.51;101268.42;111055;1208;139754;-61
2023/08/11 00:42:14;;;;;;;6.40;2.50;;;;;;;15.37;62.50;101272.86;111097;1208;98917;-61
2023/08/11 00:44:39;;;;;;;6.90;2.60;;;;;;;15.34;62.70;101273.73;111291;1208;98928;-61
2023/08/11 00:47:05;;;;;;;11.10;2.50;;;;;;;15.31;62.82;101269.95;110964;1206;140380;-61
2023/08/11 00:49:31;;;;;;;5.80;2.80;;;;;;;15.27;62.92;101274.10;111165;1208;98977;-62
2023/08/11 00:51:57;;;;;;;9.70;2.80;;;;;;;15.21;63.02;101272.61;111116;1208;140263;-61
2023/08/11 00:54:24;;;;;;;5.70;2.50;;;;;;;15.15;63.15;101276.53;111106;1211;112427;-61
2023/08/11 00:56:50;;;;;;;8.90;2.60;;;;;;;15.07;63.25;101267.40;111149;1208;98958;-62
2023/08/11 00:59:19;;;;;;;7.40;3.00;;;;;;;15.00;63.33;101270.13;111076;1208;138620;-61
2023/08/11 01:01:44;;;;;;;5.20;2.60;;;;;;;14.96;63.43;101271.07;111190;1208;100667;-61
2023/08/11 01:04:10;;;;;;;4.90;2.60;;;;;;;14.91;63.54;101271.84;110992;1208;138884;-61
2023/08/11 01:06:41;;;;;;;7.90;2.90;;;;;;;14.86;63.65;101270.65;111244;1208;99009;-61
2023/08/11 01:09:42;;;;;;;7.60;2.50;;;;;;;14.79;63.75;101276.09;111038;1210;138861;-62
2023/08/11 01:12:13;;;;;;;7.30;2.50;;;;;;;14.72;63.88;101269.45;110957;1208;99000;-62
2023/08/11 01:15:21;;;;;;;5.60;2.50;;;;;;;14.68;63.90;101265.52;111166;1205;99567;-61
2023/08/11 01:17:48;;;;;;;8.40;2.50;;;;;;;14.61;63.99;101263.66;110847;1212;112837;-61
2023/08/11 01:20:16;;;;;;;10.30;2.70;;;;;;;14.58;64.18;101266.88;111106;1207;99085;-62
2023/08/11 01:22:44;;;;;;;9.30;2.70;;;;;;;14.54;64.22;101266.15;111204;1208;139474;-61
2023/08/11 01:25:13;;;;;;;9.30;3.20;;;;;;;14.51;64.27;101264.54;111166;1208;100150;-62
2023/08/11 01:27:52;;;;;;;5.10;2.50;;;;;;;14.46;64.31;101267.14;111049;1206;140207;-61
2023/08/11 01:30:18;;;;;;;10.00;2.60;;;;;;;14.42;64.51;101263.17;111109;1218;112863;-61
2023/08/11 01:32:44;;;;;;;6.10;3.00;;;;;;;14.39;64.59;101260.07;111199;1219;99521;-62
2023/08/11 01:35:10;;;;;;;7.60;2.80;;;;;;;14.36;64.58;101257.36;110934;1206;138801;-62
2023/08/11 01:37:35;;;;;;;6.20;2.80;;;;;;;14.32;64.69;101257.18;111200;1216;99018;-62
2023/08/11 01:40:01;;;;;;;11.70;2.50;;;;;;;14.29;64.75;101261.27;110962;1209;138941;-61
2023/08/11 01:42:26;;;;;;;10.90;2.90;;;;;;;14.27;64.87;101265.34;111139;1221;99007;-61
2023/08/11 01:44:52;;;;;;;9.50;2.80;;;;;;;14.23;65.04;101264.97;111100;1208;99052;-61
2023/08/11 01:47:19;;;;;;;6.70;2.60;;;;;;;14.20;65.11;101266.93;110948;1208;139402;-61
2023/08/11 01:49:46;;;;;;;10.10;3.40;;;;;;;14.17;65.24;101267.60;111480;1208;99016;-62
2023/08/11 01:52:12;;;;;;;11.50;2.80;;;;;;;14.14;65.34;101262.36;111093;1204;138885;-61
2023/08/11 01:54:38;;;;;;;9.80;3.00;;;;;;;14.13;65.37;101262.77;111246;1206;99072;-62
2023/08/11 01:57:05;;;;;;;5.10;2.80;;;;;;;14.12;65.50;101266.44;111167;1208;100580;-61
2023/08/11 01:59:30;;;;;;;7.10;2.40;;;;;;;14.09;65.63;101266.21;111131;1214;140417;-61
2023/08/11 02:01:56;;;;;;;6.10;2.20;;;;;;;14.08;65.70;101263.05;111315;1208;98942;-62
2023/08/11 02:04:21;;;;;;;7.50;3.00;;;;;;;14.07;65.75;101265.60;111010;1208;139618;-61
2023/08/11 02:06:46;;;;;;;8.00;2.50;;;;;;;14.05;65.82;101266.04;111205;1205;99223;-62
2023/08/11 02:09:12;;;;;;;8.80;2.80;;;;;;;14.04;65.96;101266.46;110926;1204;140106;-61
2023/08/11 02:11:39;;;;;;;11.30;3.40;;;;;;;14.02;66.13;101268.69;111071;1208;98951;-62
2023/08/11 02:14:05;;;;;;;13.30;3.80;;;;;;;14.01;66.18;101267.16;111336;1205;98994;-61
2023/08/11 02:16:31;;;;;;;14.40;3.90;;;;;;;13.99;66.27;101263.45;111157;1207;141030;-62
2023/08/11 02:18:57;;;;;;;8.20;2.90;;;;;;;13.97;66.37;101264.09;111219;1215;98934;-61
2023/08/11 02:21:22;;;;;;;10.70;3.50;;;;;;;13.94;66.55;101263.49;111077;1205;140722;-62
2023/08/11 02:23:48;;;;;;;12.20;2.90;;;;;;;13.91;66.56;101264.71;111104;1218;101073;-62
2023/08/11 02:26:14;;;;;;;9.70;3.30;;;;;;;13.88;66.83;101263.08;111134;1209;98945;-61
2023/08/11 02:28:40;;;;;;;8.20;3.40;;;;;;;13.85;66.86;101267.91;111087;1206;139918;-62
2023/08/11 02:31:07;;;;;;;8.60;3.00;;;;;;;13.82;66.97;101267.48;111347;1215;99031;-61
2023/08/11 02:33:33;;;;;;;8.00;3.20;;;;;;;13.79;67.04;101273.03;111032;1209;139588;-61
2023/08/11 02:35:58;;;;;;;9.60;3.60;;;;;;;13.74;67.17;101275.25;111202;1212;98993;-61
2023/08/11 02:38:23;;;;;;;8.50;3.30;;;;;;;13.72;67.36;101272.81;111174;1208;99053;-61
2023/08/11 02:40:49;;;;;;;8.20;3.60;;;;;;;13.70;67.49;101275.41;111078;1208;139347;-61
2023/08/11 02:43:14;;;;;;;7.90;3.40;;;;;;;13.68;67.62;101275.55;111186;1221;98936;-62
2023/08/11 02:45:39;;;;;;;20.20;4.80;;;;;;;13.64;67.71;101276.41;111101;1211;138991;-62
2023/08/11 02:48:05;;;;;;;14.00;3.70;;;;;;;13.60;67.81;101275.50;111195;1208;99630;-61
2023/08/11 02:50:30;;;;;;;11.50;3.20;;;;;;;13.57;68.08;101277.65;111189;1208;99540;-61
2023/08/11 02:52:55;;;;;;;10.20;3.50;;;;;;;13.54;68.16;101278.31;111103;1208;141467;-61
2023/08/11 02:55:21;;;;;;;10.70;3.30;;;;;;;13.52;68.38;101275.52;111171;1206;99861;-62
2023/08/11 02:57:46;;;;;;;8.00;3.70;;;;;;;13.49;68.43;101272.98;110973;1209;139928;-62
2023/08/11 03:00:13;;;;;;;10.40;3.80;;;;;;;13.46;68.63;101272.04;111155;1206;100434;-61
2023/08/11 03:02:45;;;;;;;9.10;3.60;;;;;;;13.44;68.73;101272.86;111173;1206;99456;-61
2023/08/11 03:05:11;;;;;;;8.80;3.80;;;;;;;13.39;68.90;101278.27;111099;1221;138854;-62
2023/08/11 03:07:38;;;;;;;11.20;4.30;;;;;;;13.37;69.09;101279.27;111078;1206;99029;-61
2023/08/11 03:10:04;;;;;;;14.20;4.30;;;;;;;13.34;69.18;101278.33;111128;1208;139701;-61
2023/08/11 03:12:30;;;;;;;11.00;3.80;;;;;;;13.30;69.34;101280.80;111358;1208;99066;-62
2023/08/11 03:14:55;;;;;;;18.40;5.50;;;;;;;13.28;69.45;101278.94;111185;1219;98920;-61
2023/08/11 03:17:21;;;;;;;10.40;3.70;;;;;;;13.24;69.59;101279.83;111014;1208;138876;-61
2023/08/11 03:19:46;;;;;;;12.50;3.60;;;;;;;13.20;69.71;101281.29;111230;1206;99031;-62
2023/08/11 03:22:13;;;;;;;9.80;3.70;;;;;;;13.15;69.91;101285.60;110942;1212;141293;-61
2023/08/11 03:24:39;;;;;;;14.90;3.80;;;;;;;13.12;70.00;101281.07;111139;1218;100043;-62
2023/08/11 03:27:06;;;;;;;8.80;3.90;;;;;;;13.09;70.09;101281.36;111653;1206;98444;-62
2023/08/11 03:29:31;;;;;;;11.80;4.10;;;;;;;13.07;70.32;101278.60;111056;1206;138479;-61
2023/08/11 03:31:56;;;;;;;21.50;4.30;;;;;;;13.04;70.49;101279.60;111204;1208;103325;-61
2023/08/11 03:34:22;;;;;;;13.60;4.10;;;;;;;13.02;70.54;101278.44;111007;1206;139182;-62
2023/08/11 03:36:47;;;;;;;23.60;4.30;;;;;;;13.01;70.63;101280.84;111076;1206;99234;-62
2023/08/11 03:39:12;;;;;;;11.20;3.90;;;;;;;12.99;70.78;101280.59;111125;1208;139053;-61
2023/08/11 03:41:38;;;;;;;11.60;4.00;;;;;;;12.98;70.90;101283.86;111189;1209;100411;-61
2023/08/11 03:44:03;;;;;;;16.00;5.10;;;;;;;12.96;71.03;101286.08;111243;1204;99594;-61
2023/08/11 03:46:28;;;;;;;8.20;3.60;;;;;;;12.94;71.16;101283.66;111087;1205;139134;-61
2023/08/11 03:48:54;;;;;;;11.50;3.90;;;;;;;12.92;71.23;101283.02;111057;1206;98832;-62
2023/08/11 03:51:19;;;;;;;10.40;4.60;;;;;;;12.90;71.46;101285.62;111070;1209;140252;-61
2023/08/11 03:53:44;;;;;;;7.90;4.20;;;;;;;12.90;71.60;101284.74;111068;1208;98927;-61
2023/08/11 03:56:09;;;;;;;8.40;4.10;;;;;;;12.90;71.71;101288.69;111139;1203;99465;-61
2023/08/11 03:58:36;;;;;;;10.40;4.50;;;;;;;12.90;71.75;101289.04;111060;1209;138744;-61
2023/08/11 04:01:02;;;;;;;17.30;4.60;;;;;;;12.91;72.02;101287.77;111105;1208;98962;-61
2023/08/11 04:03:30;;;;;;;19.10;5.50;;;;;;;12.91;72.11;101286.85;111117;1208;139639;-60
2023/08/11 04:05:59;;;;;;;11.70;4.90;;;;;;;12.92;72.19;101288.25;111162;1209;100455;-62
2023/08/11 04:08:26;;;;;;;9.70;4.20;;;;;;;12.93;72.35;101288.75;111121;1208;99021;-63
2023/08/11 04:10:52;;;;;;;12.80;4.30;;;;;;;12.95;72.48;101287.38;111033;1209;138774;-62
2023/08/11 04:13:17;;;;;;;15.80;6.00;;;;;;;12.97;72.60;101285.86;111107;1208;100463;-63
2023/08/11 04:15:43;;;;;;;12.10;4.50;;;;;;;12.99;72.67;101285.08;111166;1209;139833;-63
2023/08/11 04:18:11;;;;;;;15.60;6.20;;;;;;;13.02;72.79;101284.93;111284;1209;100325;-60
2023/08/11 04:20:37;;;;;;;11.10;5.30;;;;;;;13.05;72.97;101286.04;111228;1217;98928;-63
2023/08/11 04:23:03;;;;;;;13.80;7.20;;;;;;;13.09;73.00;101288.02;111143;1209;139033;-61
2023/08/11 04:25:29;;;;;;;16.20;6.70;;;;;;;13.12;73.17;101287.54;111269;1209;112579;-61
2023/08/11 04:27:55;;;;;;;9.90;5.80;;;;;;;13.14;73.26;101290.85;111085;1208;140735;-60
2023/08/11 04:30:21;;;;;;;10.70;4.80;;;;;;;13.17;73.39;101293.58;111153;1222;99015;-61
2023/08/11 04:32:46;;;;;;;13.60;4.40;;;;;;;13.22;73.52;101290.00;111121;1209;99857;-61
2023/08/11 04:35:12;;;;;;;18.90;5.70;;;;;;;13.28;73.69;101294.39;111128;1215;140189;-61
2023/08/11 04:37:37;;;;;;;15.60;5.20;;;;;;;13.34;73.66;101301.30;111368;1219;99044;-60
2023/08/11 04:40:06;;;;;;;10.10;4.60;;;;;;;13.41;73.84;101300.98;111091;1203;139283;-61
2023/08/11 04:42:32;;;;;;;13.80;4.80;;;;;;;13.47;73.97;101301.09;111314;1208;99045;-60
2023/08/11 04:44:57;;;;;;;15.50;4.80;;;;;;;13.51;73.96;101299.09;111189;1208;98999;-61
2023/08/11 04:47:22;;;;;;;13.80;5.50;;;;;;;13.55;74.10;101300.88;111239;1203;138954;-61
2023/08/11 04:49:48;;;;;;;16.30;5.20;;;;;;;13.59;74.19;101303.23;111247;1203;98960;-61
2023/08/11 04:52:13;;;;;;;13.90;5.30;;;;;;;13.64;74.32;101303.35;111204;1208;139584;-61
2023/08/11 04:54:38;;;;;;;12.90;5.40;;;;;;;13.70;74.38;101304.70;111365;1207;101110;-61
2023/08/11 04:57:03;;;;;;;19.70;5.10;;;;;;;13.75;74.43;101305.71;111297;1209;99049;-61
2023/08/11 04:59:29;;;;;;;13.90;5.80;;;;;;;13.80;74.63;101302.96;111113;1203;140350;-61
2023/08/11 05:01:55;;;;;;;17.10;5.60;;;;;;;13.85;74.58;101304.91;111210;1209;99221;-61
2023/08/11 05:04:21;;;;;;;14.30;4.70;;;;;;;13.89;74.74;101306.67;111239;1203;139953;-61
2023/08/11 05:06:46;;;;;;;12.60;4.60;;;;;;;13.95;74.73;101305.33;111244;1219;98955;-61
2023/08/11 05:09:11;;;;;;;21.50;7.60;;;;;;;14.03;74.70;101307.84;110989;1208;141066;-62
2023/08/11 05:11:37;;;;;;;15.30;5.60;;;;;;;14.11;74.78;101310.88;111148;1208;101237;-61
2023/08/11 05:14:02;;;;;;;11.70;5.10;;;;;;;14.17;74.80;101309.66;111168;1203;99612;-61
2023/08/11 05:16:28;;;;;;;18.10;4.90;;;;;;;14.24;74.93;101311.88;111146;1208;139872;-61
2023/08/11 05:18:53;;;;;;;10.00;4.50;;;;;;;14.32;74.88;101314.67;111183;1203;98959;-61
2023/08/11 05:21:18;;;;;;;14.60;4.60;;;;;;;14.42;74.90;101311.71;111046;1209;139991;-61
2023/08/11 05:23:43;;;;;;;11.40;4.40;;;;;;;14.51;74.83;101310.56;111275;1203;98990;-61
2023/08/11 05:26:09;;;;;;;18.70;5.00;;;;;;;14.59;74.81;101305.67;111163;1209;100628;-61
2023/08/11 05:28:34;;;;;;;12.40;4.20;;;;;;;14.68;74.65;101302.73;111129;1209;139601;-61
2023/08/11 05:31:01;;;;;;;12.10;3.70;;;;;;;14.79;74.86;101304.51;111083;1208;98957;-61
2023/08/11 05:33:26;;;;;;;13.10;3.80;;;;;;;14.90;74.75;101301.20;111017;1209;139725;-61
2023/08/11 05:35:52;;;;;;;16.80;4.90;;;;;;;15.03;74.62;101305.61;111235;1203;98927;-62
2023/08/11 05:38:21;;;;;;;11.30;4.10;;;;;;;15.14;74.64;101308.28;111124;1203;99406;-61
2023/08/11 05:40:46;;;;;;;13.50;3.50;;;;;;;15.22;74.37;101307.48;111162;1203;139016;-62
2023/08/11 05:43:11;;;;;;;13.40;3.90;;;;;;;15.31;74.36;101302.38;111120;1209;99035;-62
2023/08/11 05:45:36;;;;;;;5.90;3.90;;;;;;;15.39;74.26;101302.44;110993;1208;139036;-62
2023/08/11 05:48:02;;;;;;;13.10;4.60;;;;;;;15.47;74.27;101300.05;111106;1208;99099;-62
2023/08/11 05:50:27;;;;;;;15.70;4.00;;;;;;;15.53;74.07;101300.45;113504;1206;96832;-62
2023/08/11 05:52:53;;;;;;;12.70;4.70;;;;;;;15.60;74.02;101306.02;113259;1204;140578;-63
2023/08/11 05:55:19;;;;;;;17.40;4.50;;;;;;;15.66;73.91;101306.59;111348;1204;98945;-62
2023/08/11 05:57:44;;;;;;;18.00;5.00;;;;;;;15.69;73.79;101307.86;111065;1205;139671;-63
2023/08/11 06:00:10;;;;;;;12.30;5.10;;;;;;;15.73;73.71;101307.85;110884;1208;99000;-62
2023/08/11 06:02:35;;;;;;;10.60;4.40;;;;;;;15.75;73.77;101308.08;111688;1208;98847;-62
2023/08/11 06:05:01;;;;;;;24.00;5.60;;;;;;;15.78;73.70;101304.89;111084;1208;139575;-62
2023/08/11 06:07:26;;;;;;;11.60;5.10;;;;;;;15.81;73.55;101307.42;111182;1206;98989;-62
2023/08/11 06:09:51;;;;;;;14.50;4.80;;;;;;;15.84;73.37;101309.23;111101;1208;139691;-62
2023/08/11 06:12:16;;;;;;;19.90;5.10;;;;;;;15.86;73.34;101308.02;110865;1206;99120;-62
2023/08/11 06:14:42;;;;;;;13.30;4.00;;;;;;;15.88;73.12;101314.23;111120;1208;98927;-62
2023/08/11 06:17:07;;;;;;;9.40;4.50;;;;;;;15.90;73.07;101316.63;110836;1208;138939;-62
2023/08/11 06:19:32;;;;;;;9.30;3.90;;;;;;;15.94;72.96;101320.93;111051;1209;99075;-62
2023/08/11 06:21:59;;;;;;;17.10;4.40;;;;;;;16.00;72.97;101322.23;111000;1208;139758;-62
2023/08/11 06:24:25;;;;;;;17.20;4.30;;;;;;;16.06;72.90;101327.10;111024;1209;107971;-62
2023/08/11 06:26:51;;;;;;;14.30;4.70;;;;;;;16.12;72.71;101328.96;111333;1207;99226;-62
2023/08/11 06:29:17;;;;;;;14.40;4.00;;;;;;;16.18;72.56;101323.91;111189;1205;138906;-62
2023/08/11 06:31:42;;;;;;;13.30;4.80;;;;;;;16.24;72.46;101320.88;111246;1208;99431;-62
2023/08/11 06:34:08;;;;;;;12.90;4.10;;;;;;;16.31;72.35;101322.64;110944;1209;138951;-62
2023/08/11 06:36:34;;;;;;;13.60;4.20;;;;;;;16.40;72.29;101324.81;110995;1211;99892;-62
2023/08/11 06:38:59;;;;;;;12.40;4.10;;;;;;;16.48;72.16;101324.73;111150;1209;99034;-62
2023/08/11 06:41:24;;;;;;;15.60;3.60;;;;;;;16.55;72.13;101327.22;111078;1204;139340;-62
2023/08/11 06:43:49;;;;;;;14.30;4.00;;;;;;;16.63;71.79;101331.65;111182;1219;98957;-63
2023/08/11 06:46:15;;;;;;;20.80;4.50;;;;;;;16.72;71.86;101337.29;111010;1206;140552;-62
2023/08/11 06:48:41;;;;;;;14.50;4.00;;;;;;;16.82;71.61;101336.53;111243;1208;100301;-63
2023/08/11 06:51:06;;;;;;;10.80;3.70;;;;;;;16.91;71.51;101338.85;111055;1206;99117;-62
2023/08/11 06:53:31;;;;;;;26.90;4.30;;;;;;;17.01;71.53;101342.65;111018;1209;139744;-62
2023/08/11 06:55:56;;;;;;;19.00;4.30;;;;;;;17.08;71.55;101347.06;111155;1205;104467;-62
2023/08/11 06:58:22;;;;;;;23.10;4.10;;;;;;;17.16;71.31;101351.30;110913;1209;140680;-63
2023/08/11 07:00:47;;;;;;;8.60;3.30;;;;;;;17.24;71.25;101352.65;111096;1208;98982;-62
2023/08/11 07:03:13;;;;;;;16.60;4.40;;;;;;;17.33;71.34;101353.34;110886;1206;140150;-63
2023/08/11 07:05:38;;;;;;;16.20;4.20;;;;;;;17.46;71.21;101351.48;111267;1206;110707;-63
2023/08/11 07:08:04;;;;;;;13.50;3.60;;;;;;;17.57;71.12;101345.05;111043;1204;98951;-61
2023/08/11 07:10:29;;;;;;;11.60;3.60;;;;;;;17.69;70.89;101353.16;111163;1209;139844;-62
2023/08/11 07:12:54;;;;;;;11.00;3.20;;;;;;;17.84;70.75;101354.39;111240;1205;99674;-61
2023/08/11 07:15:19;;;;;;;11.20;2.70;;;;;;;17.97;70.73;101355.02;110873;1218;138283;-61
2023/08/11 07:17:45;;;;;;;17.30;4.10;;;;;;;18.12;70.26;101357.30;111193;1208;99134;-61
2023/08/11 07:20:10;;;;;;;10.00;3.20;;;;;;;18.30;70.26;101356.45;111189;1206;97803;-61
2023/08/11 07:22:36;;;;;;;25.30;4.20;;;;;;;18.50;69.97;101356.67;111120;1209;139917;-61
2023/08/11 07:25:01;;;;;;;13.70;3.80;;;;;;;18.67;69.89;101355.72;110983;1209;99006;-61
2023/08/11 07:27:26;;;;;;;17.00;4.30;;;;;;;18.82;69.64;101355.80;110953;1204;139932;-61
2023/08/11 07:29:51;;;;;;;12.50;3.40;;;;;;;18.92;69.27;101361.84;111148;1208;98959;-61
2023/08/11 07:32:17;;;;;;;9.90;2.60;;;;;;;19.00;68.95;101360.23;111078;1209;99603;-62
2023/08/11 07:34:42;;;;;;;6.90;2.90;;;;;;;19.09;68.55;101364.52;110965;1212;138271;-62
2023/08/11 07:37:07;;;;;;;12.00;2.50;;;;;;;19.18;68.21;101368.26;111162;1206;98890;-62
2023/08/11 07:39:33;;;;;;;15.10;3.10;;;;;;;19.24;67.76;101369.51;111030;1208;140306;-61
2023/08/11 07:42:02;;;;;;;8.50;2.60;;;;;;;19.32;67.31;101368.37;111146;1206;99038;-62
2023/08/11 07:44:30;;;;;;;9.40;2.80;;;;;;;19.44;67.04;101367.94;111106;1206;99119;-60
2023/08/11 07:46:55;;;;;;;8.10;2.70;;;;;;;19.55;66.80;101366.08;111117;1209;138715;-61
2023/08/11 07:49:20;;;;;;;7.20;2.40;;;;;;;19.64;66.66;101364.75;111239;1203;98963;-61
2023/08/11 07:51:46;;;;;;;11.60;3.10;;;;;;;19.69;66.23;101364.53;111104;1209;138886;-61
2023/08/11 07:54:11;;;;;;;12.70;2.60;;;;;;;19.74;66.09;101362.59;111072;1208;98959;-61
2023/08/11 07:56:36;;;;;;;8.60;2.30;;;;;;;19.75;65.81;101363.56;111199;1209;101956;-61
2023/08/11 07:59:02;;;;;;;9.80;2.60;;;;;;;19.79;65.50;101365.33;110987;1205;138793;-61
2023/08/11 08:01:27;;;;;;;7.00;2.50;;;;;;;19.86;65.34;101364.23;111190;1209;99031;-61
2023/08/11 08:03:53;;;;;;;13.00;2.90;;;;;;;19.95;65.19;101364.52;111159;1206;138672;-61
2023/08/11 08:06:19;;;;;;;12.10;3.30;;;;;;;20.02;64.94;101363.15;111230;1208;99044;-61
2023/08/11 08:08:45;;;;;;;4.80;2.40;;;;;;;20.07;64.83;101361.46;111249;1207;98932;-61
2023/08/11 08:11:10;;;;;;;18.20;3.70;;;;;;;20.11;64.66;101363.94;110749;1221;138150;-61
2023/08/11 08:13:35;;;;;;;11.40;3.00;;;;;;;20.05;64.31;101358.70;111077;1206;100339;-60
2023/08/11 08:16:00;;;;;;;9.90;2.30;;;;;;;19.98;63.97;101361.05;111186;1208;138378;-62
2023/08/11 08:18:26;;;;;;;15.90;2.40;;;;;;;19.93;63.79;101368.11;111181;1209;100264;-61
2023/08/11 08:20:51;;;;;;;11.30;2.20;;;;;;;19.92;63.65;101369.48;111187;1209;99031;-61
2023/08/11 08:23:17;;;;;;;6.40;1.90;;;;;;;19.91;63.45;101367.20;111070;1208;138677;-61
2023/08/11 08:25:43;;;;;;;9.50;1.70;;;;;;;19.86;63.12;101365.36;111274;1208;99435;-61
2023/08/11 08:28:10;;;;;;;5.90;1.60;;;;;;;19.81;62.83;101365.77;110873;1208;140229;-63
2023/08/11 08:30:36;;;;;;;4.60;1.90;;;;;;;19.74;62.53;101370.17;111241;1208;99519;-61
2023/08/11 08:33:01;;;;;;;5.20;1.50;;;;;;;19.71;62.07;101368.63;111129;1208;101044;-62
2023/08/11 08:35:27;;;;;;;10.40;2.30;;;;;;;19.70;61.67;101371.17;111068;1209;138974;-61
2023/08/11 08:37:52;;;;;;;4.80;1.50;;;;;;;19.71;61.38;101378.35;111129;1209;98985;-62
2023/08/11 08:40:17;;;;;;;5.90;2.10;;;;;;;19.73;60.96;101377.86;111057;1216;138570;-61
2023/08/11 08:42:44;;;;;;;4.60;1.50;;;;;;;19.74;60.23;101374.94;111188;1219;99027;-62
2023/08/11 08:45:09;;;;;;;4.90;2.00;;;;;;;19.75;60.05;101374.61;111208;1206;99053;-61
2023/08/11 08:47:35;;;;;;;5.80;2.20;;;;;;;19.86;59.91;101375.14;111312;1208;139619;-61
2023/08/11 08:50:03;;;;;;;4.50;1.90;;;;;;;20.00;59.84;101377.22;111361;1206;104325;-61
2023/08/11 08:52:30;;;;;;;10.60;3.10;;;;;;;20.16;59.46;101372.67;111053;1209;138501;-61
2023/08/11 08:54:56;;;;;;;4.60;1.60;;;;;;;20.34;59.32;101371.31;111174;1206;100123;-61
2023/08/11 08:57:25;;;;;;;10.40;2.40;;;;;;;20.53;59.07;101367.10;110979;1208;138944;-62
2023/08/11 08:59:50;;;;;;;10.70;4.10;;;;;;;20.69;58.76;101365.73;111221;1209;99058;-61
2023/08/11 09:02:17;;;;;;;8.60;1.90;;;;;;;20.82;58.25;101366.21;111134;1208;98980;-61
2023/08/11 09:04:44;;;;;;;4.00;1.40;;;;;;;20.79;57.53;101365.85;111162;1208;138150;-61
2023/08/11 09:07:10;;;;;;;7.60;2.20;;;;;;;20.78;56.86;101370.11;111188;1209;99009;-63
2023/08/11 09:09:36;;;;;;;11.90;1.80;;;;;;;20.75;56.51;101374.36;111088;1206;138720;-61
2023/08/11 09:12:01;;;;;;;4.60;1.40;;;;;;;20.75;56.52;101371.81;111137;1205;99431;-62
2023/08/11 09:14:27;;;;;;;8.90;1.90;;;;;;;20.74;56.53;101373.29;111138;1219;98999;-62
2023/08/11 09:16:53;;;;;;;4.70;1.60;;;;;;;20.67;56.31;101370.42;111120;1203;137938;-62
2023/08/11 09:19:20;;;;;;;9.70;2.40;;;;;;;20.62;56.14;101371.28;111170;1207;99110;-62
2023/08/11 09:21:46;;;;;;;14.60;2.60;;;;;;;20.58;55.88;101372.48;111049;1205;138099;-62
2023/08/11 09:24:13;;;;;;;6.00;1.60;;;;;;;20.58;55.66;101370.88;110972;1209;99657;-62
2023/08/11 09:26:42;;;;;;;11.90;2.20;;;;;;;20.60;55.33;101370.73;111166;1207;98957;-61
2023/08/11 09:29:08;;;;;;;3.80;1.30;;;;;;;20.62;55.10;101367.14;111121;1208;138884;-62
2023/08/11 09:31:34;;;;;;;8.10;1.80;;;;;;;20.68;54.86;101370.29;111204;1208;99180;-62
2023/08/11 09:34:12;;;;;;;5.80;1.80;;;;;;;20.75;54.49;101370.13;111098;1219;139071;-62
2023/08/11 09:36:37;;;;;;;5.20;1.60;;;;;;;20.84;54.51;101368.55;111182;1218;99049;-61
2023/08/11 09:39:10;;;;;;;4.20;1.40;;;;;;;20.99;54.49;101370.66;111147;1206;99028;-62
2023/08/11 09:41:43;;;;;;;10.20;1.70;;;;;;;21.12;54.46;101369.02;111054;1203;137862;-62
2023/08/11 09:44:10;;;;;;;8.20;2.30;;;;;;;21.16;54.10;101368.89;111070;1205;99135;-62
2023/08/11 09:46:37;;;;;;;3.80;1.40;;;;;;;21.14;53.89;101365.89;111103;1206;140221;-63
2023/08/11 09:49:03;;;;;;;7.60;1.50;;;;;;;21.12;53.70;101367.14;111260;1205;98949;-62
2023/08/11 09:51:31;;;;;;;7.30;1.80;;;;;;;21.14;53.07;101367.19;111092;1206;138842;-62
2023/08/11 09:54:00;;;;;;;6.40;1.40;;;;;;;21.10;52.31;101362.21;111210;1208;100083;-61
2023/08/11 09:56:26;;;;;;;5.70;1.30;;;;;;;21.15;52.66;101362.53;111145;1208;99347;-62
2023/08/11 09:58:52;;;;;;;6.80;1.70;;;;;;;21.19;52.42;101362.63;110991;1208;138140;-62
2023/08/11 10:01:19;;;;;;;5.70;1.80;;;;;;;21.12;52.03;101364.41;111310;1208;99037;-61
2023/08/11 10:03:47;;;;;;;6.90;1.70;;;;;;;21.11;52.04;101362.36;111189;1205;138559;-62
2023/08/11 10:06:21;;;;;;;3.60;1.60;;;;;;;21.17;52.14;101366.96;111116;1208;99370;-62
2023/08/11 10:08:49;;;;;;;6.80;1.50;;;;;;;21.22;52.22;101370.20;111256;1215;98944;-61
2023/08/11 10:11:16;;;;;;;7.40;1.90;;;;;;;21.27;52.11;101366.76;110896;1209;138524;-61
2023/08/11 10:13:42;;;;;;;6.00;1.80;;;;;;;21.31;51.85;101366.05;111231;1208;104398;-61
2023/08/11 10:16:08;;;;;;;5.60;1.90;;;;;;;21.36;51.75;101362.58;111115;1203;139119;-61
2023/08/11 10:18:34;;;;;;;9.10;2.50;;;;;;;21.43;51.63;101357.70;111357;1208;99001;-62
2023/08/11 10:20:59;;;;;;;3.90;1.70;;;;;;;21.47;51.67;101358.11;111209;1207;99167;-61
2023/08/11 10:23:27;;;;;;;7.10;1.80;;;;;;;21.55;51.66;101363.69;111129;1208;138342;-62
2023/08/11 10:25:53;;;;;;;9.80;1.70;;;;;;;21.62;51.67;101362.73;111279;1209;98945;-62
2023/08/11 10:28:19;;;;;;;3.40;1.40;;;;;;;21.72;51.33;101365.27;111082;1209;139100;-62
2023/08/11 10:30:54;;;;;;;4.90;1.50;;;;;;;21.79;51.29;101361.77;111343;1208;99352;-64
2023/08/11 10:33:19;;;;;;;4.00;1.20;;;;;;;21.89;51.41;101358.28;111239;1204;139509;-61
2023/08/11 10:35:54;;;;;;;8.30;1.60;;;;;;;22.09;51.20;101356.52;111285;1208;99044;-61
2023/08/11 10:38:27;;;;;;;3.90;1.30;;;;;;;22.29;50.77;101356.45;111175;1208;99607;-61
2023/08/11 10:41:00;;;;;;;3.60;2.00;;;;;;;22.45;49.64;101356.10;111166;1205;138119;-61
2023/08/11 10:43:37;;;;;;;7.60;1.60;;;;;;;22.47;49.64;101353.59;111203;1204;98961;-61
2023/08/11 10:46:23;;;;;;;6.30;1.50;;;;;;;22.42;49.09;101351.43;111077;1211;139265;-62
2023/08/11 10:48:59;;;;;;;3.00;1.50;;;;;;;22.35;49.01;101353.79;111295;1208;99847;-62
2023/08/11 10:51:31;;;;;;;5.30;1.50;;;;;;;22.27;48.62;101355.89;111082;1205;138133;-62
2023/08/11 10:54:11;;;;;;;8.70;1.40;;;;;;;22.16;48.38;101354.66;111218;1208;99492;-61
2023/08/11 10:56:43;;;;;;;4.40;1.80;;;;;;;22.19;48.74;101354.56;111184;1208;99476;-62
2023/08/11 10:59:29;;;;;;;9.40;1.70;;;;;;;22.34;48.82;101359.04;111062;1209;138999;-62
2023/08/11 11:01:56;;;;;;;5.00;1.60;;;;;;;22.52;48.89;101356.46;111343;1208;98941;-62
2023/08/11 11:04:26;;;;;;;4.90;1.40;;;;;;;22.65;48.59;101353.14;111124;1206;138546;-61
2023/08/11 11:06:51;;;;;;;5.30;1.40;;;;;;;22.71;48.33;101350.52;111173;1208;98932;-61